createdAt,value
2019-01-31T00:02:18.468Z,-3.78
2019-01-31T00:05:32.866Z,-3.70
2019-01-31T00:08:45.496Z,-3.54
2019-01-31T00:11:36.421Z,-3.48
2019-01-31T00:14:43.995Z,-3.49
2019-01-31T00:18:01.319Z,-3.46
2019-01-31T00:21:19.985Z,-3.44
2019-01-31T00:24:31.362Z,-3.38
2019-01-31T00:27:44.817Z,-3.40
2019-01-31T00:30:57.145Z,-3.45
2019-01-31T00:33:57.745Z,-3.41
2019-01-31T00:37:12.920Z,-3.42
2019-01-31T00:40:23.093Z,-3.43
2019-01-31T00:43:15.833Z,-3.44
2019-01-31T00:46:16.599Z,-3.44
2019-01-31T00:49:18.181Z,-3.48
2019-01-31T00:52:20.171Z,-3.49
2019-01-31T00:55:48.480Z,-3.51
2019-01-31T00:59:05.594Z,-3.50
2019-01-31T01:02:33.876Z,-3.56
2019-01-31T01:05:58.455Z,-3.55
2019-01-31T01:09:10.676Z,-3.57
2019-01-31T01:12:33.276Z,-3.58
2019-01-31T01:15:45.933Z,-3.52
2019-01-31T01:18:36.415Z,-3.55
2019-01-31T01:21:53.240Z,-3.57
2019-01-31T01:25:01.437Z,-3.55
2019-01-31T01:28:01.926Z,-3.56
2019-01-31T01:31:14.522Z,-3.54
2019-01-31T01:34:19.451Z,-3.58
2019-01-31T01:37:00.632Z,-3.59
2019-01-31T01:39:58.881Z,-3.58
2019-01-31T01:43:00.437Z,-3.52
2019-01-31T01:46:15.876Z,-3.52
2019-01-31T01:49:05.962Z,-3.56
2019-01-31T01:51:51.934Z,-3.58
2019-01-31T01:55:20.710Z,-3.58
2019-01-31T01:58:29.594Z,-3.52
2019-01-31T02:01:39.103Z,-3.47
2019-01-31T02:04:46.125Z,-3.54
2019-01-31T02:07:43.224Z,-3.54
2019-01-31T02:11:05.654Z,-3.57
2019-01-31T02:14:19.099Z,-3.57
2019-01-31T02:17:19.928Z,-3.59
2019-01-31T02:20:30.252Z,-3.59
2019-01-31T02:23:26.255Z,-3.60
2019-01-31T02:26:48.635Z,-3.62
2019-01-31T02:29:49.435Z,-3.71
2019-01-31T02:32:51.779Z,-3.75
2019-01-31T02:36:09.005Z,-3.78
2019-01-31T02:39:08.962Z,-3.83
2019-01-31T02:42:24.581Z,-3.80
2019-01-31T02:45:52.878Z,-3.86
2019-01-31T02:48:58.091Z,-3.94
2019-01-31T02:52:02.004Z,-3.97
2019-01-31T02:55:15.924Z,-4.00
2019-01-31T02:58:17.920Z,-4.00
2019-01-31T03:01:19.084Z,-4.04
2019-01-31T03:04:31.478Z,-4.10
2019-01-31T03:07:48.081Z,-4.07
2019-01-31T03:10:53.749Z,-4.15
2019-01-31T03:13:49.336Z,-4.16
2019-01-31T03:16:53.600Z,-4.17
2019-01-31T03:20:14.005Z,-4.28
2019-01-31T03:23:34.994Z,-4.48
2019-01-31T03:26:46.988Z,-4.55
2019-01-31T03:30:05.913Z,-4.60
2019-01-31T03:33:09.955Z,-4.62
2019-01-31T03:36:27.566Z,-4.58
2019-01-31T03:39:17.753Z,-4.60
2019-01-31T03:42:33.357Z,-4.69
2019-01-31T03:45:24.852Z,-4.73
2019-01-31T03:48:19.092Z,-4.72
2019-01-31T03:51:18.155Z,-4.77
2019-01-31T03:54:42.948Z,-4.79
2019-01-31T03:57:39.988Z,-4.77
2019-01-31T04:01:08.277Z,-4.77
2019-01-31T04:03:51.485Z,-4.79
2019-01-31T04:06:33.911Z,-4.83
2019-01-31T04:09:10.607Z,-4.90
2019-01-31T04:11:41.231Z,-4.91
2019-01-31T04:14:11.949Z,-4.94
2019-01-31T04:16:42.647Z,-4.96
2019-01-31T04:19:13.385Z,-4.95
2019-01-31T04:21:44.147Z,-4.93
2019-01-31T04:24:14.746Z,-4.94
2019-01-31T04:26:45.361Z,-4.87
2019-01-31T04:29:16.098Z,-4.80
2019-01-31T04:31:46.786Z,-4.75
2019-01-31T04:34:17.913Z,-4.68
2019-01-31T04:36:48.553Z,-4.59
2019-01-31T04:39:19.201Z,-4.62
2019-01-31T04:41:50.293Z,-4.59
2019-01-31T04:44:21.033Z,-4.51
2019-01-31T04:46:51.791Z,-4.53
2019-01-31T04:49:22.412Z,-4.54
2019-01-31T04:51:53.016Z,-4.56
2019-01-31T04:54:23.676Z,-4.60
2019-01-31T04:56:54.397Z,-4.62
2019-01-31T04:59:25.179Z,-4.70
2019-01-31T05:01:55.955Z,-4.74
2019-01-31T05:04:26.624Z,-4.80
2019-01-31T05:06:57.201Z,-4.83
2019-01-31T05:09:27.911Z,-4.85
2019-01-31T05:11:58.596Z,-4.84
2019-01-31T05:14:29.223Z,-4.87
2019-01-31T05:16:59.927Z,-4.92
2019-01-31T05:19:30.840Z,-4.97
2019-01-31T05:22:01.427Z,-5.02
2019-01-31T05:24:31.994Z,-5.08
2019-01-31T05:27:04.493Z,-5.05
2019-01-31T05:29:35.022Z,-4.99
2019-01-31T05:32:05.747Z,-4.94
2019-01-31T05:34:36.375Z,-4.95
2019-01-31T05:37:06.983Z,-4.97
2019-01-31T05:39:37.593Z,-4.97
2019-01-31T05:42:08.721Z,-4.96
2019-01-31T05:44:39.386Z,-5.00
2019-01-31T05:47:09.922Z,-5.04
2019-01-31T05:49:40.780Z,-5.02
2019-01-31T05:52:11.500Z,-5.03
2019-01-31T05:54:42.088Z,-4.99
2019-01-31T05:57:12.720Z,-4.98
2019-01-31T05:59:43.425Z,-4.91
2019-01-31T06:02:14.013Z,-4.87
2019-01-31T06:04:44.866Z,-4.87
2019-01-31T06:07:15.623Z,-4.81
2019-01-31T06:09:46.211Z,-4.76
2019-01-31T06:12:16.810Z,-4.73
2019-01-31T06:14:47.434Z,-4.72
2019-01-31T06:17:18.391Z,-4.74
2019-01-31T06:19:49.203Z,-4.77
2019-01-31T06:22:19.803Z,-4.75
2019-01-31T06:24:50.486Z,-4.72
2019-01-31T06:27:21.034Z,-4.73
2019-01-31T06:29:51.652Z,-4.77
2019-01-31T06:32:22.285Z,-4.75
2019-01-31T06:34:52.662Z,-4.72
2019-01-31T06:37:23.062Z,-4.67
2019-01-31T06:39:53.661Z,-4.62
2019-01-31T06:42:24.192Z,-4.57
2019-01-31T06:44:54.616Z,-4.50
2019-01-31T06:47:25.159Z,-4.49
2019-01-31T06:49:55.677Z,-4.44
2019-01-31T06:52:26.174Z,-4.42
2019-01-31T06:54:56.672Z,-4.36
2019-01-31T06:57:27.257Z,-4.28
2019-01-31T06:59:58.172Z,-4.20
2019-01-31T07:02:28.739Z,-4.14
2019-01-31T07:04:59.588Z,-4.11
2019-01-31T07:07:30.408Z,-4.01
2019-01-31T07:10:01.072Z,-3.91
2019-01-31T07:12:31.924Z,-3.80
2019-01-31T07:15:02.434Z,-3.68
2019-01-31T07:17:33.177Z,-3.43
2019-01-31T07:20:03.830Z,-3.41
2019-01-31T07:22:34.492Z,-3.02
2019-01-31T07:25:05.975Z,-2.67
2019-01-31T07:27:36.615Z,-2.14
2019-01-31T07:30:09.828Z,-1.73
2019-01-31T07:32:41.654Z,-1.12
2019-01-31T07:35:14.401Z,-0.66
2019-01-31T07:37:45.005Z,-0.63
2019-01-31T07:40:18.524Z,-0.60
2019-01-31T07:42:48.970Z,0.40
2019-01-31T07:45:26.637Z,0.81
2019-01-31T07:47:57.210Z,1.18
2019-01-31T07:50:27.841Z,1.74
2019-01-31T07:52:58.701Z,2.15
2019-01-31T07:55:29.208Z,2.44
2019-01-31T07:58:09.552Z,2.39
2019-01-31T08:00:40.169Z,2.82
2019-01-31T08:03:10.815Z,2.47
2019-01-31T08:05:41.436Z,3.25
2019-01-31T08:08:12.024Z,2.79
2019-01-31T08:10:44.464Z,3.36
2019-01-31T08:13:15.005Z,4.36
2019-01-31T08:15:45.573Z,3.56
2019-01-31T08:18:16.228Z,3.79
2019-01-31T08:20:46.908Z,3.62
2019-01-31T08:23:17.490Z,4.42
2019-01-31T08:25:48.100Z,3.58
2019-01-31T08:28:18.768Z,4.90
2019-01-31T08:30:49.284Z,4.95
2019-01-31T08:33:19.885Z,4.51
2019-01-31T08:35:50.565Z,4.75
2019-01-31T08:38:21.420Z,5.42
2019-01-31T08:40:52.071Z,4.81
2019-01-31T08:43:22.736Z,5.07
2019-01-31T08:45:53.318Z,4.95
2019-01-31T08:48:24.464Z,4.68
2019-01-31T08:50:55.074Z,4.27
2019-01-31T08:53:25.509Z,5.28
2019-01-31T08:55:56.350Z,5.43
2019-01-31T08:58:26.854Z,5.10
2019-01-31T09:00:57.734Z,5.95
2019-01-31T09:03:28.350Z,6.61
2019-01-31T09:05:58.890Z,6.41
2019-01-31T09:08:29.430Z,6.84
2019-01-31T09:10:59.978Z,7.85
2019-01-31T09:13:31.516Z,8.30
2019-01-31T09:16:21.032Z,7.68
2019-01-31T09:18:51.532Z,7.57
2019-01-31T09:22:12.879Z,6.43
2019-01-31T09:25:24.186Z,6.50
2019-01-31T09:28:36.357Z,9.11
2019-01-31T09:31:45.624Z,8.05
2019-01-31T09:34:48.531Z,8.38
2019-01-31T09:38:07.447Z,9.77
2019-01-31T09:41:08.550Z,8.65
2019-01-31T09:44:33.871Z,9.41
2019-01-31T09:47:44.891Z,9.45
2019-01-31T09:50:57.927Z,9.85
2019-01-31T09:54:09.391Z,9.76
2019-01-31T09:57:30.168Z,10.85
2019-01-31T10:00:29.327Z,10.39
2019-01-31T10:03:57.180Z,10.87
2019-01-31T10:07:03.024Z,11.42
2019-01-31T10:09:50.316Z,11.34
2019-01-31T10:13:11.569Z,10.81
2019-01-31T10:16:24.406Z,10.61
2019-01-31T10:19:38.740Z,10.99
2019-01-31T10:22:56.974Z,10.99
2019-01-31T10:26:06.366Z,10.09
2019-01-31T10:29:19.320Z,11.34
2019-01-31T10:32:32.262Z,10.61
2019-01-31T10:35:44.064Z,11.28
2019-01-31T10:38:48.477Z,10.62
2019-01-31T10:42:10.548Z,11.41
2019-01-31T10:45:22.812Z,11.52
2019-01-31T10:48:28.049Z,11.19
2019-01-31T10:51:54.716Z,12.07
2019-01-31T10:55:22.575Z,12.97
2019-01-31T10:58:38.156Z,10.08
2019-01-31T11:02:04.626Z,10.49
2019-01-31T11:05:18.386Z,10.22
2019-01-31T11:08:46.276Z,11.03
2019-01-31T11:11:59.517Z,10.07
2019-01-31T11:15:03.333Z,10.43
2019-01-31T11:18:25.697Z,10.46
2019-01-31T11:21:53.551Z,9.22
2019-01-31T11:25:08.006Z,9.54
2019-01-31T11:28:08.845Z,10.65
2019-01-31T11:31:01.136Z,10.59
2019-01-31T11:34:33.074Z,10.22
2019-01-31T11:37:58.815Z,10.62
2019-01-31T11:41:26.685Z,8.07
2019-01-31T11:44:52.008Z,7.83
2019-01-31T11:48:02.254Z,6.40
2019-01-31T11:51:20.650Z,5.74
2019-01-31T11:54:08.794Z,6.58
2019-01-31T11:57:30.678Z,6.01
2019-01-31T12:00:01.306Z,6.38
2019-01-31T12:02:32.008Z,5.92
2019-01-31T12:05:02.487Z,5.94
2019-01-31T12:07:33.159Z,6.21
2019-01-31T12:10:03.875Z,5.55
2019-01-31T12:12:34.520Z,5.58
2019-01-31T12:15:07.045Z,6.05
2019-01-31T12:17:38.036Z,6.80
2019-01-31T12:20:10.064Z,6.42
2019-01-31T12:22:40.870Z,6.88
2019-01-31T12:25:11.931Z,6.28
2019-01-31T12:27:42.503Z,6.70
2019-01-31T12:30:19.320Z,6.80
2019-01-31T12:32:49.851Z,6.97
2019-01-31T12:35:20.433Z,6.72
2019-01-31T12:37:51.247Z,6.14
2019-01-31T12:40:21.906Z,5.54
2019-01-31T12:42:52.690Z,5.52
2019-01-31T12:45:23.626Z,4.86
2019-01-31T12:47:54.157Z,4.99
2019-01-31T12:50:28.123Z,5.00
2019-01-31T12:52:58.664Z,5.42
2019-01-31T12:55:29.229Z,4.16
2019-01-31T12:57:59.854Z,4.56
2019-01-31T13:00:31.407Z,4.83
2019-01-31T13:03:02.006Z,4.12
2019-01-31T13:05:32.486Z,4.37
2019-01-31T13:08:03.037Z,4.47
2019-01-31T13:10:33.600Z,3.80
2019-01-31T13:13:04.690Z,3.78
2019-01-31T13:15:35.700Z,3.68
2019-01-31T13:18:07.189Z,3.47
2019-01-31T13:20:37.824Z,3.23
2019-01-31T13:23:08.764Z,2.80
2019-01-31T13:25:39.445Z,2.72
2019-01-31T13:28:10.095Z,2.72
2019-01-31T13:30:40.615Z,3.10
2019-01-31T13:33:12.772Z,3.04
2019-01-31T13:35:43.415Z,2.63
2019-01-31T13:38:14.010Z,2.74
2019-01-31T13:40:44.554Z,2.35
2019-01-31T13:43:15.297Z,2.44
2019-01-31T13:45:45.878Z,2.27
2019-01-31T13:48:18.037Z,2.26
2019-01-31T13:50:48.697Z,2.19
2019-01-31T13:53:19.408Z,2.23
2019-01-31T13:55:50.195Z,2.10
2019-01-31T13:58:20.870Z,2.18
2019-01-31T14:00:55.425Z,2.42
2019-01-31T14:03:27.896Z,2.50
2019-01-31T14:05:59.083Z,2.75
2019-01-31T14:08:31.702Z,2.77
2019-01-31T14:11:02.398Z,2.85
2019-01-31T14:13:33.078Z,2.61
2019-01-31T14:16:03.818Z,2.28
2019-01-31T14:18:34.451Z,2.33
2019-01-31T14:21:05.197Z,2.18
2019-01-31T14:23:35.937Z,2.17
2019-01-31T14:26:07.223Z,2.26
2019-01-31T14:28:37.897Z,2.22
2019-01-31T14:31:08.617Z,2.24
2019-01-31T14:33:39.305Z,2.19
2019-01-31T14:36:10.240Z,2.07
2019-01-31T14:38:40.850Z,2.02
2019-01-31T14:41:11.566Z,2.05
2019-01-31T14:43:42.095Z,1.92
2019-01-31T14:46:13.114Z,1.93
2019-01-31T14:48:44.384Z,1.93
2019-01-31T14:51:14.945Z,2.09
2019-01-31T14:53:45.725Z,2.14
2019-01-31T14:56:16.521Z,2.27
2019-01-31T14:58:47.045Z,2.22
2019-01-31T15:01:17.704Z,2.19
2019-01-31T15:03:48.289Z,2.08
2019-01-31T15:06:19.165Z,2.06
2019-01-31T15:08:50.126Z,1.80
2019-01-31T15:11:20.845Z,1.68
2019-01-31T15:13:51.566Z,1.61
2019-01-31T15:16:22.317Z,1.53
2019-01-31T15:18:53.116Z,1.47
2019-01-31T15:21:24.314Z,1.41
2019-01-31T15:23:55.535Z,1.41
2019-01-31T15:26:29.147Z,1.34
2019-01-31T15:28:59.797Z,1.26
2019-01-31T15:31:30.556Z,1.25
2019-01-31T15:34:01.387Z,1.25
2019-01-31T15:36:32.234Z,1.19
2019-01-31T15:39:03.001Z,1.10
2019-01-31T15:41:33.601Z,1.07
2019-01-31T15:44:04.254Z,1.05
2019-01-31T15:46:34.980Z,1.04
2019-01-31T15:49:05.632Z,1.03
2019-01-31T15:51:36.333Z,1.01
2019-01-31T15:54:07.921Z,0.99
2019-01-31T15:56:38.765Z,0.96
2019-01-31T15:59:09.597Z,0.94
2019-01-31T16:01:40.323Z,0.90
2019-01-31T16:04:11.322Z,0.89
2019-01-31T16:06:41.931Z,0.88
2019-01-31T16:09:12.583Z,0.87
2019-01-31T16:11:43.237Z,0.83
2019-01-31T16:14:13.974Z,0.81
2019-01-31T16:16:44.634Z,0.77
2019-01-31T16:19:15.404Z,0.75
2019-01-31T16:21:46.217Z,0.72
2019-01-31T16:24:17.028Z,0.68
2019-01-31T16:26:47.702Z,0.64
2019-01-31T16:29:18.393Z,0.59
2019-01-31T16:31:49.239Z,0.52
2019-01-31T16:34:20.248Z,0.47
2019-01-31T16:36:54.039Z,0.44
2019-01-31T16:39:27.422Z,0.37
2019-01-31T16:41:58.087Z,0.32
2019-01-31T16:44:31.688Z,0.22
2019-01-31T16:47:02.578Z,0.12
2019-01-31T16:49:34.285Z,0.08
2019-01-31T16:52:05.209Z,0.00
2019-01-31T16:54:37.427Z,-0.03
2019-01-31T16:57:08.205Z,-0.07
2019-01-31T16:59:38.837Z,-0.13
2019-01-31T17:02:09.509Z,-0.13
2019-01-31T17:04:42.829Z,-0.16
2019-01-31T17:07:16.843Z,-0.21
2019-01-31T17:09:47.837Z,-0.24
2019-01-31T17:12:18.637Z,-0.25
2019-01-31T17:14:51.677Z,-0.30
2019-01-31T17:17:23.717Z,-0.31
2019-01-31T17:19:54.482Z,-0.37
2019-01-31T17:22:25.496Z,-0.42
2019-01-31T17:24:56.263Z,-0.47
2019-01-31T17:27:28.182Z,-0.52
2019-01-31T17:30:00.205Z,-0.56
2019-01-31T17:32:35.858Z,-0.63
2019-01-31T17:35:09.438Z,-0.68
2019-01-31T17:37:42.196Z,-0.71
2019-01-31T17:40:21.672Z,-0.72
2019-01-31T17:42:52.286Z,-0.80
2019-01-31T17:45:30.378Z,-0.84
2019-01-31T17:48:02.844Z,-0.93
2019-01-31T17:50:36.351Z,-0.95
2019-01-31T17:53:08.179Z,-0.98
2019-01-31T17:55:41.570Z,-0.98
2019-01-31T17:58:11.690Z,-1.03
2019-01-31T18:00:51.877Z,-1.04
2019-01-31T18:03:22.506Z,-1.06
2019-01-31T18:05:58.093Z,-1.10
2019-01-31T18:08:33.816Z,-1.11
2019-01-31T18:11:04.491Z,-1.12
2019-01-31T18:13:36.151Z,-1.16
2019-01-31T18:16:11.843Z,-1.14
2019-01-31T18:18:44.023Z,-1.10
2019-01-31T18:21:20.633Z,-1.11
2019-01-31T18:23:51.227Z,-1.12
2019-01-31T18:26:21.899Z,-1.10
2019-01-31T18:28:57.289Z,-1.05
2019-01-31T18:31:28.292Z,-1.00
2019-01-31T18:33:59.026Z,-1.04
2019-01-31T18:36:32.777Z,-1.09
2019-01-31T18:39:07.147Z,-1.15
2019-01-31T18:41:41.532Z,-1.19
2019-01-31T18:44:14.584Z,-1.25
2019-01-31T18:46:49.980Z,-1.27
2019-01-31T18:49:28.271Z,-1.29
2019-01-31T18:52:00.209Z,-1.30
2019-01-31T18:54:32.127Z,-1.29
2019-01-31T18:57:07.513Z,-1.31
2019-01-31T18:59:46.052Z,-1.32
2019-01-31T19:02:20.598Z,-1.33
2019-01-31T19:04:51.536Z,-1.35
2019-01-31T19:07:27.066Z,-1.40
2019-01-31T19:10:05.847Z,-1.46
2019-01-31T19:12:41.193Z,-1.48
2019-01-31T19:15:15.327Z,-1.48
2019-01-31T19:17:46.553Z,-1.46
2019-01-31T19:20:28.973Z,-1.39
2019-01-31T19:23:06.581Z,-1.33
2019-01-31T19:25:44.097Z,-1.32
2019-01-31T19:28:29.907Z,-1.32
2019-01-31T19:31:09.058Z,-1.40
2019-01-31T19:33:42.586Z,-1.45
2019-01-31T19:36:19.431Z,-1.54
2019-01-31T19:38:56.255Z,-1.62
2019-01-31T19:41:42.470Z,-1.69
2019-01-31T19:44:15.252Z,-1.78
2019-01-31T19:46:46.382Z,-1.84
2019-01-31T19:49:17.112Z,-1.87
2019-01-31T19:51:52.189Z,-1.82
2019-01-31T19:54:25.357Z,-1.86
2019-01-31T19:56:59.453Z,-1.91
2019-01-31T19:59:30.292Z,-1.94
2019-01-31T20:02:05.035Z,-1.99
2019-01-31T20:04:35.871Z,-1.97
2019-01-31T20:07:13.406Z,-1.94
2019-01-31T20:09:45.333Z,-1.94
2019-01-31T20:12:24.546Z,-1.95
2019-01-31T20:15:05.185Z,-1.93
2019-01-31T20:17:37.279Z,-1.92
2019-01-31T20:20:15.134Z,-1.90
2019-01-31T20:22:49.177Z,-1.90
2019-01-31T20:25:24.136Z,-1.93
2019-01-31T20:27:56.710Z,-1.95
2019-01-31T20:30:34.930Z,-1.95
2019-01-31T20:33:08.277Z,-1.96
2019-01-31T20:35:41.527Z,-1.94
2019-01-31T20:38:14.582Z,-1.92
2019-01-31T20:40:52.306Z,-1.89
2019-01-31T20:43:32.852Z,-1.85
2019-01-31T20:46:13.846Z,-1.82
2019-01-31T20:48:47.926Z,-1.86
2019-01-31T20:51:21.880Z,-1.88
2019-01-31T20:53:52.660Z,-1.94
2019-01-31T20:56:23.321Z,-1.96
2019-01-31T20:58:58.681Z,-1.98
2019-01-31T21:01:30.751Z,-2.04
2019-01-31T21:04:03.837Z,-2.07
2019-01-31T21:06:41.594Z,-2.11
2019-01-31T21:09:11.706Z,-2.10
2019-01-31T21:11:44.539Z,-2.10
2019-01-31T21:14:16.787Z,-2.07
2019-01-31T21:16:53.896Z,-2.03
2019-01-31T21:19:25.145Z,-1.95
2019-01-31T21:22:00.411Z,-1.95
2019-01-31T21:24:33.330Z,-1.90
2019-01-31T21:27:04.374Z,-1.88
2019-01-31T21:29:35.425Z,-1.88
2019-01-31T21:32:08.473Z,-1.93
2019-01-31T21:34:43.379Z,-1.92
2019-01-31T21:37:18.620Z,-1.90
2019-01-31T21:39:50.394Z,-1.87
2019-01-31T21:42:21.109Z,-1.85
2019-01-31T21:44:51.889Z,-1.87
2019-01-31T21:47:22.587Z,-1.91
2019-01-31T21:49:54.203Z,-2.00
2019-01-31T21:52:28.069Z,-2.03
2019-01-31T21:54:58.826Z,-2.15
2019-01-31T21:57:29.371Z,-2.23
2019-01-31T22:00:00.986Z,-2.39
2019-01-31T22:02:31.558Z,-2.42
2019-01-31T22:05:02.087Z,-2.48
2019-01-31T22:07:33.022Z,-2.51
2019-01-31T22:10:03.971Z,-2.50
2019-01-31T22:12:34.657Z,-2.50
2019-01-31T22:15:12.015Z,-2.45
2019-01-31T22:17:42.606Z,-2.43
2019-01-31T22:20:13.977Z,-2.49
2019-01-31T22:22:44.534Z,-2.48
2019-01-31T22:25:18.379Z,-2.40
2019-01-31T22:27:49.052Z,-2.38
2019-01-31T22:30:30.466Z,-2.38
2019-01-31T22:33:01.308Z,-2.38
2019-01-31T22:35:32.667Z,-2.39
2019-01-31T22:38:03.298Z,-2.40
2019-01-31T22:40:34.228Z,-2.33
2019-01-31T22:43:05.111Z,-2.29
2019-01-31T22:45:37.125Z,-2.29
2019-01-31T22:48:08.997Z,-2.29
2019-01-31T22:50:40.012Z,-2.28
2019-01-31T22:53:10.614Z,-2.31
2019-01-31T22:55:41.315Z,-2.34
2019-01-31T22:58:11.971Z,-2.50
2019-01-31T23:01:31.520Z,-2.58
2019-01-31T23:04:02.786Z,-2.61
2019-01-31T23:06:33.473Z,-2.55
2019-01-31T23:09:06.381Z,-2.57
2019-01-31T23:11:36.978Z,-2.62
2019-01-31T23:14:07.948Z,-2.71
2019-01-31T23:16:38.805Z,-2.82
2019-01-31T23:19:09.544Z,-2.87
2019-01-31T23:21:40.434Z,-2.88
2019-01-31T23:24:11.056Z,-2.92
2019-01-31T23:26:41.546Z,-2.94
2019-01-31T23:29:12.310Z,-2.96
2019-01-31T23:31:43.039Z,-2.97
2019-01-31T23:34:13.561Z,-3.02
2019-01-31T23:36:44.101Z,-3.06
2019-01-31T23:39:14.827Z,-3.09
2019-01-31T23:41:45.517Z,-3.07
2019-01-31T23:44:16.293Z,-3.11
2019-01-31T23:46:46.963Z,-3.21
2019-01-31T23:49:17.542Z,-3.24
2019-01-31T23:51:48.141Z,-3.29
2019-01-31T23:54:18.772Z,-3.30
2019-01-31T23:56:49.390Z,-3.28
2019-01-31T23:59:20.097Z,-3.28
